sensor_id;sensor_type;location;lat;lon;timestamp;temperature;humidity
573;DHT22;271;51.114;13.780;2024-01-30T00:02:33;4.00;1.00
573;DHT22;271;51.114;13.780;2024-01-30T00:05:21;4.00;1.00
573;DHT22;271;51.114;13.780;2024-01-30T00:08:08;4.10;1.00
573;DHT22;271;51.114;13.780;2024-01-30T00:10:56;3.80;1.00
573;DHT22;271;51.114;13.780;2024-01-30T00:13:44;3.90;1.00
573;DHT22;271;51.114;13.780;2024-01-30T00:16:33;3.90;1.00
573;DHT22;271;51.114;13.780;2024-01-30T00:19:20;3.90;1.00
573;DHT22;271;51.114;13.780;2024-01-30T00:22:08;3.90;1.00
573;DHT22;271;51.114;13.780;2024-01-30T00:24:56;3.90;1.00
573;DHT22;271;51.114;13.780;2024-01-30T00:27:44;4.00;1.00
573;DHT22;271;51.114;13.780;2024-01-30T00:30:31;3.80;1.00
573;DHT22;271;51.114;13.780;2024-01-30T00:33:20;4.00;1.00
573;DHT22;271;51.114;13.780;2024-01-30T00:36:09;3.90;1.00
573;DHT22;271;51.114;13.780;2024-01-30T00:38:57;3.90;1.00
573;DHT22;271;51.114;13.780;2024-01-30T00:41:44;3.90;1.00
573;DHT22;271;51.114;13.780;2024-01-30T00:44:35;3.80;1.00
573;DHT22;271;51.114;13.780;2024-01-30T00:47:23;3.80;1.00
573;DHT22;271;51.114;13.780;2024-01-30T00:50:12;3.80;1.00
573;DHT22;271;51.114;13.780;2024-01-30T00:53:00;3.80;1.00
573;DHT22;271;51.114;13.780;2024-01-30T00:55:47;3.90;1.00
573;DHT22;271;51.114;13.780;2024-01-30T00:58:35;3.80;1.00
573;DHT22;271;51.114;13.780;2024-01-30T01:01:23;3.70;1.00
573;DHT22;271;51.114;13.780;2024-01-30T01:04:10;3.80;1.00
573;DHT22;271;51.114;13.780;2024-01-30T01:06:59;3.80;1.00
573;DHT22;271;51.114;13.780;2024-01-30T01:09:47;3.80;1.00
573;DHT22;271;51.114;13.780;2024-01-30T01:12:35;3.90;1.00
573;DHT22;271;51.114;13.780;2024-01-30T01:15:22;3.70;1.00
573;DHT22;271;51.114;13.780;2024-01-30T01:18:10;3.70;1.00
573;DHT22;271;51.114;13.780;2024-01-30T01:20:58;3.70;1.00
573;DHT22;271;51.114;13.780;2024-01-30T01:23:49;3.80;1.00
573;DHT22;271;51.114;13.780;2024-01-30T01:26:37;3.80;1.00
573;DHT22;271;51.114;13.780;2024-01-30T01:29:25;3.80;1.00
573;DHT22;271;51.114;13.780;2024-01-30T01:32:14;3.60;1.00
573;DHT22;271;51.114;13.780;2024-01-30T01:35:02;3.70;1.00
573;DHT22;271;51.114;13.780;2024-01-30T01:37:52;3.60;1.00
573;DHT22;271;51.114;13.780;2024-01-30T01:40:43;3.60;1.00
573;DHT22;271;51.114;13.780;2024-01-30T01:43:31;3.60;1.00
573;DHT22;271;51.114;13.780;2024-01-30T01:46:18;3.60;1.00
573;DHT22;271;51.114;13.780;2024-01-30T01:49:07;3.50;1.00
573;DHT22;271;51.114;13.780;2024-01-30T01:51:55;3.70;1.00
573;DHT22;271;51.114;13.780;2024-01-30T01:54:44;3.50;1.00
573;DHT22;271;51.114;13.780;2024-01-30T01:57:33;3.50;1.00
573;DHT22;271;51.114;13.780;2024-01-30T02:00:21;3.50;1.00
573;DHT22;271;51.114;13.780;2024-01-30T02:03:10;3.50;1.00
573;DHT22;271;51.114;13.780;2024-01-30T02:05:58;3.40;1.00
573;DHT22;271;51.114;13.780;2024-01-30T02:08:46;3.40;1.00
573;DHT22;271;51.114;13.780;2024-01-30T02:11:34;3.50;1.00
573;DHT22;271;51.114;13.780;2024-01-30T02:14:23;3.40;1.00
573;DHT22;271;51.114;13.780;2024-01-30T02:17:11;3.30;1.00
573;DHT22;271;51.114;13.780;2024-01-30T02:19:59;3.30;1.00
573;DHT22;271;51.114;13.780;2024-01-30T02:22:48;3.30;1.00
573;DHT22;271;51.114;13.780;2024-01-30T02:25:39;3.40;1.00
573;DHT22;271;51.114;13.780;2024-01-30T02:28:30;3.30;1.00
573;DHT22;271;51.114;13.780;2024-01-30T02:31:18;3.30;1.00
573;DHT22;271;51.114;13.780;2024-01-30T02:34:05;3.30;1.00
573;DHT22;271;51.114;13.780;2024-01-30T02:36:53;3.30;1.00
573;DHT22;271;51.114;13.780;2024-01-30T02:39:42;3.30;1.00
573;DHT22;271;51.114;13.780;2024-01-30T02:42:29;3.20;1.00
573;DHT22;271;51.114;13.780;2024-01-30T02:45:17;3.30;1.00
573;DHT22;271;51.114;13.780;2024-01-30T02:48:06;3.30;1.00
573;DHT22;271;51.114;13.780;2024-01-30T02:50:53;3.30;1.00
573;DHT22;271;51.114;13.780;2024-01-30T02:53:41;3.30;1.00
573;DHT22;271;51.114;13.780;2024-01-30T02:56:30;3.30;1.00
573;DHT22;271;51.114;13.780;2024-01-30T02:59:18;3.30;1.00
573;DHT22;271;51.114;13.780;2024-01-30T03:02:05;3.30;1.00
573;DHT22;271;51.114;13.780;2024-01-30T03:04:53;3.30;1.00
573;DHT22;271;51.114;13.780;2024-01-30T03:07:41;3.30;1.00
573;DHT22;271;51.114;13.780;2024-01-30T03:10:28;3.30;1.00
573;DHT22;271;51.114;13.780;2024-01-30T03:13:17;3.20;1.00
573;DHT22;271;51.114;13.780;2024-01-30T03:16:06;3.20;1.00
573;DHT22;271;51.114;13.780;2024-01-30T03:18:53;3.20;1.00
573;DHT22;271;51.114;13.780;2024-01-30T03:21:41;3.20;1.00
573;DHT22;271;51.114;13.780;2024-01-30T03:24:29;3.10;1.00
573;DHT22;271;51.114;13.780;2024-01-30T03:27:17;3.20;1.00
573;DHT22;271;51.114;13.780;2024-01-30T03:30:07;3.10;1.00
573;DHT22;271;51.114;13.780;2024-01-30T03:32:55;3.10;1.00
573;DHT22;271;51.114;13.780;2024-01-30T03:35:43;3.30;1.00
573;DHT22;271;51.114;13.780;2024-01-30T03:38:30;3.10;1.00
573;DHT22;271;51.114;13.780;2024-01-30T03:41:19;3.00;1.00
573;DHT22;271;51.114;13.780;2024-01-30T03:44:06;2.90;1.00
573;DHT22;271;51.114;13.780;2024-01-30T03:46:55;2.90;1.00
573;DHT22;271;51.114;13.780;2024-01-30T03:49:43;2.90;1.00
573;DHT22;271;51.114;13.780;2024-01-30T03:52:31;3.00;1.00
573;DHT22;271;51.114;13.780;2024-01-30T03:55:18;2.90;1.00
573;DHT22;271;51.114;13.780;2024-01-30T03:58:06;2.90;1.00
573;DHT22;271;51.114;13.780;2024-01-30T04:00:54;3.00;1.00
573;DHT22;271;51.114;13.780;2024-01-30T04:03:43;3.00;1.00
573;DHT22;271;51.114;13.780;2024-01-30T04:06:30;2.90;1.00
573;DHT22;271;51.114;13.780;2024-01-30T04:09:18;2.90;1.00
573;DHT22;271;51.114;13.780;2024-01-30T04:12:06;2.90;1.00
573;DHT22;271;51.114;13.780;2024-01-30T04:14:54;2.90;1.00
573;DHT22;271;51.114;13.780;2024-01-30T04:17:41;2.80;1.00
573;DHT22;271;51.114;13.780;2024-01-30T04:20:31;2.90;1.00
573;DHT22;271;51.114;13.780;2024-01-30T04:23:18;2.90;1.00
573;DHT22;271;51.114;13.780;2024-01-30T04:26:06;2.80;1.00
573;DHT22;271;51.114;13.780;2024-01-30T04:28:53;2.90;1.00
573;DHT22;271;51.114;13.780;2024-01-30T04:31:41;2.80;1.00
573;DHT22;271;51.114;13.780;2024-01-30T04:34:29;2.90;1.00
573;DHT22;271;51.114;13.780;2024-01-30T04:37:18;2.90;1.00
573;DHT22;271;51.114;13.780;2024-01-30T04:40:06;2.90;1.00
573;DHT22;271;51.114;13.780;2024-01-30T04:42:55;2.80;1.00
573;DHT22;271;51.114;13.780;2024-01-30T04:45:43;2.80;1.00
573;DHT22;271;51.114;13.780;2024-01-30T04:48:31;2.90;1.00
573;DHT22;271;51.114;13.780;2024-01-30T04:51:19;2.80;1.00
573;DHT22;271;51.114;13.780;2024-01-30T04:54:08;2.80;1.00
573;DHT22;271;51.114;13.780;2024-01-30T04:56:55;2.80;1.00
573;DHT22;271;51.114;13.780;2024-01-30T04:59:43;2.80;1.00
573;DHT22;271;51.114;13.780;2024-01-30T05:02:31;2.80;1.00
573;DHT22;271;51.114;13.780;2024-01-30T05:05:18;2.80;1.00
573;DHT22;271;51.114;13.780;2024-01-30T05:08:07;2.80;1.00
573;DHT22;271;51.114;13.780;2024-01-30T05:10:56;2.70;1.00
573;DHT22;271;51.114;13.780;2024-01-30T05:13:43;2.80;1.00
573;DHT22;271;51.114;13.780;2024-01-30T05:16:31;2.70;1.00
573;DHT22;271;51.114;13.780;2024-01-30T05:19:19;2.70;1.00
573;DHT22;271;51.114;13.780;2024-01-30T05:22:09;2.90;1.00
573;DHT22;271;51.114;13.780;2024-01-30T05:24:57;2.90;1.00
573;DHT22;271;51.114;13.780;2024-01-30T05:27:46;2.80;1.00
573;DHT22;271;51.114;13.780;2024-01-30T05:30:34;2.70;1.00
573;DHT22;271;51.114;13.780;2024-01-30T05:33:21;2.80;1.00
573;DHT22;271;51.114;13.780;2024-01-30T05:36:11;2.70;1.00
573;DHT22;271;51.114;13.780;2024-01-30T05:38:59;2.70;1.00
573;DHT22;271;51.114;13.780;2024-01-30T05:41:47;2.70;1.00
573;DHT22;271;51.114;13.780;2024-01-30T05:44:36;2.70;1.00
573;DHT22;271;51.114;13.780;2024-01-30T05:47:24;2.70;1.00
573;DHT22;271;51.114;13.780;2024-01-30T05:50:11;2.70;1.00
573;DHT22;271;51.114;13.780;2024-01-30T05:52:59;2.70;1.00
573;DHT22;271;51.114;13.780;2024-01-30T05:55:47;2.80;1.00
573;DHT22;271;51.114;13.780;2024-01-30T05:58:34;2.70;1.00
573;DHT22;271;51.114;13.780;2024-01-30T06:01:25;2.90;1.00
573;DHT22;271;51.114;13.780;2024-01-30T06:04:12;2.70;1.00
573;DHT22;271;51.114;13.780;2024-01-30T06:07:00;2.70;1.00
573;DHT22;271;51.114;13.780;2024-01-30T06:09:48;2.70;1.00
573;DHT22;271;51.114;13.780;2024-01-30T06:12:36;2.70;1.00
573;DHT22;271;51.114;13.780;2024-01-30T06:15:23;2.70;1.00
573;DHT22;271;51.114;13.780;2024-01-30T06:18:13;2.70;1.00
573;DHT22;271;51.114;13.780;2024-01-30T06:21:01;2.70;1.00
573;DHT22;271;51.114;13.780;2024-01-30T06:23:49;2.80;1.00
573;DHT22;271;51.114;13.780;2024-01-30T06:26:36;2.80;1.00
573;DHT22;271;51.114;13.780;2024-01-30T06:29:24;2.90;1.00
573;DHT22;271;51.114;13.780;2024-01-30T06:32:13;2.70;1.00
573;DHT22;271;51.114;13.780;2024-01-30T06:35:02;2.70;1.00
573;DHT22;271;51.114;13.780;2024-01-30T06:37:50;2.70;1.00
573;DHT22;271;51.114;13.780;2024-01-30T06:40:37;2.70;1.00
573;DHT22;271;51.114;13.780;2024-01-30T06:43:25;2.60;1.00
573;DHT22;271;51.114;13.780;2024-01-30T06:46:13;2.70;1.00
573;DHT22;271;51.114;13.780;2024-01-30T06:49:00;2.80;1.00
573;DHT22;271;51.114;13.780;2024-01-30T06:51:50;2.80;1.00
573;DHT22;271;51.114;13.780;2024-01-30T06:54:37;2.90;1.00
573;DHT22;271;51.114;13.780;2024-01-30T06:57:26;2.90;1.00
573;DHT22;271;51.114;13.780;2024-01-30T07:00:15;2.90;1.00
573;DHT22;271;51.114;13.780;2024-01-30T07:03:05;3.10;1.00
573;DHT22;271;51.114;13.780;2024-01-30T07:05:52;3.00;1.00
573;DHT22;271;51.114;13.780;2024-01-30T07:08:41;3.00;1.00
573;DHT22;271;51.114;13.780;2024-01-30T07:11:29;3.10;1.00
573;DHT22;271;51.114;13.780;2024-01-30T07:14:17;3.10;1.00
573;DHT22;271;51.114;13.780;2024-01-30T07:17:05;3.10;1.00
573;DHT22;271;51.114;13.780;2024-01-30T07:19:53;3.10;1.00
573;DHT22;271;51.114;13.780;2024-01-30T07:22:41;3.10;1.00
573;DHT22;271;51.114;13.780;2024-01-30T07:25:30;3.20;1.00
573;DHT22;271;51.114;13.780;2024-01-30T07:28:18;3.20;1.00
573;DHT22;271;51.114;13.780;2024-01-30T07:31:05;3.20;1.00
573;DHT22;271;51.114;13.780;2024-01-30T07:33:53;3.30;1.00
573;DHT22;271;51.114;13.780;2024-01-30T07:36:41;3.30;1.00
573;DHT22;271;51.114;13.780;2024-01-30T07:39:28;3.40;1.00
573;DHT22;271;51.114;13.780;2024-01-30T07:42:17;3.50;1.00
573;DHT22;271;51.114;13.780;2024-01-30T07:45:06;3.50;1.00
573;DHT22;271;51.114;13.780;2024-01-30T07:47:53;3.50;1.00
573;DHT22;271;51.114;13.780;2024-01-30T07:50:41;3.50;1.00
573;DHT22;271;51.114;13.780;2024-01-30T07:53:29;3.70;1.00
573;DHT22;271;51.114;13.780;2024-01-30T07:56:16;3.70;1.00
573;DHT22;271;51.114;13.780;2024-01-30T07:59:09;3.80;1.00
573;DHT22;271;51.114;13.780;2024-01-30T08:01:56;3.80;1.00
573;DHT22;271;51.114;13.780;2024-01-30T08:04:44;3.90;1.00
573;DHT22;271;51.114;13.780;2024-01-30T08:07:35;4.00;1.00
573;DHT22;271;51.114;13.780;2024-01-30T08:10:22;4.00;1.00
573;DHT22;271;51.114;13.780;2024-01-30T08:13:10;4.10;1.00
573;DHT22;271;51.114;13.780;2024-01-30T08:15:59;4.00;1.00
573;DHT22;271;51.114;13.780;2024-01-30T08:18:46;4.10;1.00
573;DHT22;271;51.114;13.780;2024-01-30T08:21:34;4.20;1.00
573;DHT22;271;51.114;13.780;2024-01-30T08:24:22;4.30;1.00
573;DHT22;271;51.114;13.780;2024-01-30T08:27:10;4.40;1.00
573;DHT22;271;51.114;13.780;2024-01-30T08:29:58;4.50;1.00
573;DHT22;271;51.114;13.780;2024-01-30T08:32:47;4.50;1.00
573;DHT22;271;51.114;13.780;2024-01-30T08:35:35;4.50;1.00
573;DHT22;271;51.114;13.780;2024-01-30T08:38:23;4.70;1.00
573;DHT22;271;51.114;13.780;2024-01-30T08:41:10;4.90;1.00
573;DHT22;271;51.114;13.780;2024-01-30T08:43:58;5.10;1.00
573;DHT22;271;51.114;13.780;2024-01-30T08:46:46;5.50;1.00
573;DHT22;271;51.114;13.780;2024-01-30T08:49:35;6.10;1.00
573;DHT22;271;51.114;13.780;2024-01-30T08:52:22;6.40;1.00
573;DHT22;271;51.114;13.780;2024-01-30T08:55:10;6.90;1.00
573;DHT22;271;51.114;13.780;2024-01-30T08:57:58;7.50;1.00
573;DHT22;271;51.114;13.780;2024-01-30T09:00:46;7.80;1.00
573;DHT22;271;51.114;13.780;2024-01-30T09:03:34;8.00;1.00
573;DHT22;271;51.114;13.780;2024-01-30T09:06:24;7.90;1.00
573;DHT22;271;51.114;13.780;2024-01-30T09:09:12;7.80;1.00
573;DHT22;271;51.114;13.780;2024-01-30T09:12:00;7.70;1.00
573;DHT22;271;51.114;13.780;2024-01-30T09:14:53;7.50;1.00
573;DHT22;271;51.114;13.780;2024-01-30T09:17:41;7.50;1.00
573;DHT22;271;51.114;13.780;2024-01-30T09:20:29;7.60;1.00
573;DHT22;271;51.114;13.780;2024-01-30T09:23:18;7.80;1.00
573;DHT22;271;51.114;13.780;2024-01-30T09:26:06;8.00;1.00
573;DHT22;271;51.114;13.780;2024-01-30T09:28:53;8.00;1.00
573;DHT22;271;51.114;13.780;2024-01-30T09:31:43;8.20;1.00
573;DHT22;271;51.114;13.780;2024-01-30T09:34:31;8.00;1.00
573;DHT22;271;51.114;13.780;2024-01-30T09:37:18;8.00;1.00
573;DHT22;271;51.114;13.780;2024-01-30T09:40:09;8.10;1.00
573;DHT22;271;51.114;13.780;2024-01-30T09:42:56;8.10;1.00
573;DHT22;271;51.114;13.780;2024-01-30T09:45:46;7.90;1.00
573;DHT22;271;51.114;13.780;2024-01-30T09:48:35;7.60;1.00
573;DHT22;271;51.114;13.780;2024-01-30T09:51:24;7.30;1.00
573;DHT22;271;51.114;13.780;2024-01-30T09:54:14;7.20;1.00
573;DHT22;271;51.114;13.780;2024-01-30T09:57:04;7.20;1.00
573;DHT22;271;51.114;13.780;2024-01-30T09:59:52;7.20;1.00
573;DHT22;271;51.114;13.780;2024-01-30T10:02:40;7.10;1.00
573;DHT22;271;51.114;13.780;2024-01-30T10:05:29;7.20;1.00
573;DHT22;271;51.114;13.780;2024-01-30T10:08:20;7.10;1.00
573;DHT22;271;51.114;13.780;2024-01-30T10:11:08;7.10;1.00
573;DHT22;271;51.114;13.780;2024-01-30T10:13:57;7.50;1.00
573;DHT22;271;51.114;13.780;2024-01-30T10:16:46;7.70;1.00
573;DHT22;271;51.114;13.780;2024-01-30T10:19:34;7.80;1.00
573;DHT22;271;51.114;13.780;2024-01-30T10:22:21;7.90;1.00
573;DHT22;271;51.114;13.780;2024-01-30T10:25:10;8.10;1.00
573;DHT22;271;51.114;13.780;2024-01-30T10:27:59;8.40;1.00
573;DHT22;271;51.114;13.780;2024-01-30T10:30:57;8.70;1.00
573;DHT22;271;51.114;13.780;2024-01-30T10:33:45;8.80;1.00
573;DHT22;271;51.114;13.780;2024-01-30T10:36:40;8.60;1.00
573;DHT22;271;51.114;13.780;2024-01-30T10:39:29;8.60;1.00
573;DHT22;271;51.114;13.780;2024-01-30T10:42:18;8.60;1.00
573;DHT22;271;51.114;13.780;2024-01-30T10:45:07;8.10;1.00
573;DHT22;271;51.114;13.780;2024-01-30T10:47:58;7.80;1.00
573;DHT22;271;51.114;13.780;2024-01-30T10:50:46;7.40;1.00
573;DHT22;271;51.114;13.780;2024-01-30T10:53:34;7.30;1.00
573;DHT22;271;51.114;13.780;2024-01-30T10:56:24;7.60;1.00
573;DHT22;271;51.114;13.780;2024-01-30T10:59:12;7.80;1.00
573;DHT22;271;51.114;13.780;2024-01-30T11:02:00;7.70;1.00
573;DHT22;271;51.114;13.780;2024-01-30T11:04:55;7.70;1.00
573;DHT22;271;51.114;13.780;2024-01-30T11:07:44;7.70;1.00
573;DHT22;271;51.114;13.780;2024-01-30T11:10:31;7.90;1.00
573;DHT22;271;51.114;13.780;2024-01-30T11:13:19;7.80;1.00
573;DHT22;271;51.114;13.780;2024-01-30T11:16:07;7.70;1.00
573;DHT22;271;51.114;13.780;2024-01-30T11:19:00;7.60;1.00
573;DHT22;271;51.114;13.780;2024-01-30T11:21:52;7.60;1.00
573;DHT22;271;51.114;13.780;2024-01-30T11:24:41;7.60;1.00
573;DHT22;271;51.114;13.780;2024-01-30T11:27:30;7.60;1.00
573;DHT22;271;51.114;13.780;2024-01-30T11:30:22;7.60;1.00
573;DHT22;271;51.114;13.780;2024-01-30T11:33:11;7.40;1.00
573;DHT22;271;51.114;13.780;2024-01-30T11:36:00;7.40;1.00
573;DHT22;271;51.114;13.780;2024-01-30T11:38:49;7.10;1.00
573;DHT22;271;51.114;13.780;2024-01-30T11:41:37;7.20;1.00
573;DHT22;271;51.114;13.780;2024-01-30T11:44:25;7.30;1.00
573;DHT22;271;51.114;13.780;2024-01-30T11:47:14;6.90;1.00
573;DHT22;271;51.114;13.780;2024-01-30T11:50:04;6.70;1.00
573;DHT22;271;51.114;13.780;2024-01-30T11:52:56;6.70;1.00
573;DHT22;271;51.114;13.780;2024-01-30T11:55:51;6.70;1.00
573;DHT22;271;51.114;13.780;2024-01-30T11:58:42;6.50;1.00
573;DHT22;271;51.114;13.780;2024-01-30T12:01:31;6.30;1.00
573;DHT22;271;51.114;13.780;2024-01-30T12:04:19;6.20;1.00
573;DHT22;271;51.114;13.780;2024-01-30T12:07:07;6.20;1.00
573;DHT22;271;51.114;13.780;2024-01-30T12:09:54;6.10;1.00
573;DHT22;271;51.114;13.780;2024-01-30T12:12:48;6.20;1.00
573;DHT22;271;51.114;13.780;2024-01-30T12:15:36;6.30;1.00
573;DHT22;271;51.114;13.780;2024-01-30T12:18:24;6.30;1.00
573;DHT22;271;51.114;13.780;2024-01-30T12:21:11;6.40;1.00
573;DHT22;271;51.114;13.780;2024-01-30T12:23:59;6.40;1.00
573;DHT22;271;51.114;13.780;2024-01-30T12:26:47;6.30;1.00
573;DHT22;271;51.114;13.780;2024-01-30T12:29:36;6.30;1.00
573;DHT22;271;51.114;13.780;2024-01-30T12:32:24;6.30;1.00
573;DHT22;271;51.114;13.780;2024-01-30T12:35:12;6.20;1.00
573;DHT22;271;51.114;13.780;2024-01-30T12:38:03;6.00;1.00
573;DHT22;271;51.114;13.780;2024-01-30T12:40:54;5.90;1.00
573;DHT22;271;51.114;13.780;2024-01-30T12:43:42;6.00;1.00
573;DHT22;271;51.114;13.780;2024-01-30T12:46:31;6.00;1.00
573;DHT22;271;51.114;13.780;2024-01-30T12:49:21;5.90;1.00
573;DHT22;271;51.114;13.780;2024-01-30T12:52:09;5.90;1.00
573;DHT22;271;51.114;13.780;2024-01-30T12:54:56;5.80;1.00
573;DHT22;271;51.114;13.780;2024-01-30T12:57:44;5.80;1.00
573;DHT22;271;51.114;13.780;2024-01-30T13:00:32;5.90;1.00
573;DHT22;271;51.114;13.780;2024-01-30T13:03:22;5.90;1.00
573;DHT22;271;51.114;13.780;2024-01-30T13:06:11;5.90;1.00
573;DHT22;271;51.114;13.780;2024-01-30T13:08:58;5.70;1.00
573;DHT22;271;51.114;13.780;2024-01-30T13:11:46;5.80;1.00
573;DHT22;271;51.114;13.780;2024-01-30T13:14:34;5.80;1.00
573;DHT22;271;51.114;13.780;2024-01-30T13:17:24;5.80;1.00
573;DHT22;271;51.114;13.780;2024-01-30T13:20:13;5.90;1.00
573;DHT22;271;51.114;13.780;2024-01-30T13:23:03;5.90;1.00
573;DHT22;271;51.114;13.780;2024-01-30T13:25:51;5.90;1.00
573;DHT22;271;51.114;13.780;2024-01-30T13:28:46;6.00;1.00
573;DHT22;271;51.114;13.780;2024-01-30T13:31:33;6.00;1.00
573;DHT22;271;51.114;13.780;2024-01-30T13:34:22;6.10;1.00
573;DHT22;271;51.114;13.780;2024-01-30T13:37:11;6.10;1.00
573;DHT22;271;51.114;13.780;2024-01-30T13:40:00;6.20;1.00
573;DHT22;271;51.114;13.780;2024-01-30T13:42:49;6.20;1.00
573;DHT22;271;51.114;13.780;2024-01-30T13:45:37;6.30;1.00
573;DHT22;271;51.114;13.780;2024-01-30T13:48:26;6.30;1.00
573;DHT22;271;51.114;13.780;2024-01-30T13:51:14;6.40;1.00
573;DHT22;271;51.114;13.780;2024-01-30T13:54:05;6.40;1.00
573;DHT22;271;51.114;13.780;2024-01-30T13:56:54;6.50;1.00
573;DHT22;271;51.114;13.780;2024-01-30T13:59:43;6.40;1.00
573;DHT22;271;51.114;13.780;2024-01-30T14:02:31;6.30;1.00
573;DHT22;271;51.114;13.780;2024-01-30T14:05:20;6.20;1.00
573;DHT22;271;51.114;13.780;2024-01-30T14:08:12;6.20;1.00
573;DHT22;271;51.114;13.780;2024-01-30T14:11:02;6.30;1.00
573;DHT22;271;51.114;13.780;2024-01-30T14:13:51;6.30;1.00
573;DHT22;271;51.114;13.780;2024-01-30T14:16:39;6.30;1.00
573;DHT22;271;51.114;13.780;2024-01-30T14:19:28;6.30;1.00
573;DHT22;271;51.114;13.780;2024-01-30T14:22:17;6.20;1.00
573;DHT22;271;51.114;13.780;2024-01-30T14:25:07;6.20;1.00
573;DHT22;271;51.114;13.780;2024-01-30T14:27:57;6.10;1.00
573;DHT22;271;51.114;13.780;2024-01-30T14:30:47;5.90;1.00
573;DHT22;271;51.114;13.780;2024-01-30T14:33:38;5.90;1.00
573;DHT22;271;51.114;13.780;2024-01-30T14:36:26;5.80;1.00
573;DHT22;271;51.114;13.780;2024-01-30T14:39:15;5.80;1.00
573;DHT22;271;51.114;13.780;2024-01-30T14:42:05;5.60;1.00
573;DHT22;271;51.114;13.780;2024-01-30T14:44:55;5.60;1.00
573;DHT22;271;51.114;13.780;2024-01-30T14:47:45;5.50;1.00
573;DHT22;271;51.114;13.780;2024-01-30T14:50:33;5.50;1.00
573;DHT22;271;51.114;13.780;2024-01-30T14:53:21;5.50;1.00
573;DHT22;271;51.114;13.780;2024-01-30T14:56:08;5.50;1.00
573;DHT22;271;51.114;13.780;2024-01-30T14:58:56;5.60;1.00
573;DHT22;271;51.114;13.780;2024-01-30T15:01:45;5.50;1.00
573;DHT22;271;51.114;13.780;2024-01-30T15:04:34;5.50;1.00
573;DHT22;271;51.114;13.780;2024-01-30T15:07:22;5.40;1.00
573;DHT22;271;51.114;13.780;2024-01-30T15:10:10;5.30;1.00
573;DHT22;271;51.114;13.780;2024-01-30T15:12:58;5.40;1.00
573;DHT22;271;51.114;13.780;2024-01-30T15:15:45;5.40;1.00
573;DHT22;271;51.114;13.780;2024-01-30T15:18:34;5.20;1.00
573;DHT22;271;51.114;13.780;2024-01-30T15:21:22;5.10;1.00
573;DHT22;271;51.114;13.780;2024-01-30T15:24:10;5.00;1.00
573;DHT22;271;51.114;13.780;2024-01-30T15:27:01;4.80;1.00
573;DHT22;271;51.114;13.780;2024-01-30T15:29:49;4.80;1.00
573;DHT22;271;51.114;13.780;2024-01-30T15:32:36;4.70;1.00
573;DHT22;271;51.114;13.780;2024-01-30T15:35:25;4.70;1.00
573;DHT22;271;51.114;13.780;2024-01-30T15:38:13;4.60;1.00
573;DHT22;271;51.114;13.780;2024-01-30T15:41:02;4.60;1.00
573;DHT22;271;51.114;13.780;2024-01-30T15:43:49;4.50;1.00
573;DHT22;271;51.114;13.780;2024-01-30T15:46:37;4.40;1.00
573;DHT22;271;51.114;13.780;2024-01-30T15:49:25;4.40;1.00
573;DHT22;271;51.114;13.780;2024-01-30T15:52:14;4.40;1.00
573;DHT22;271;51.114;13.780;2024-01-30T15:55:03;4.30;1.00
573;DHT22;271;51.114;13.780;2024-01-30T15:57:51;4.10;1.00
573;DHT22;271;51.114;13.780;2024-01-30T16:00:40;4.30;1.00
573;DHT22;271;51.114;13.780;2024-01-30T16:03:28;4.10;1.00
573;DHT22;271;51.114;13.780;2024-01-30T16:06:16;4.10;1.00
573;DHT22;271;51.114;13.780;2024-01-30T16:09:05;4.10;1.00
573;DHT22;271;51.114;13.780;2024-01-30T16:11:53;4.00;1.00
573;DHT22;271;51.114;13.780;2024-01-30T16:14:41;4.00;1.00
573;DHT22;271;51.114;13.780;2024-01-30T16:17:28;4.00;1.00
573;DHT22;271;51.114;13.780;2024-01-30T16:20:17;4.10;1.00
573;DHT22;271;51.114;13.780;2024-01-30T16:23:05;4.30;1.00
573;DHT22;271;51.114;13.780;2024-01-30T16:25:54;4.20;1.00
573;DHT22;271;51.114;13.780;2024-01-30T16:28:42;4.00;1.00
573;DHT22;271;51.114;13.780;2024-01-30T16:31:30;4.10;1.00
573;DHT22;271;51.114;13.780;2024-01-30T16:34:18;4.20;1.00
573;DHT22;271;51.114;13.780;2024-01-30T16:37:06;4.20;1.00
573;DHT22;271;51.114;13.780;2024-01-30T16:39:54;3.90;1.00
573;DHT22;271;51.114;13.780;2024-01-30T16:42:43;3.90;1.00
573;DHT22;271;51.114;13.780;2024-01-30T16:45:30;3.80;1.00
573;DHT22;271;51.114;13.780;2024-01-30T16:48:18;3.80;1.00
573;DHT22;271;51.114;13.780;2024-01-30T16:51:08;4.00;1.00
573;DHT22;271;51.114;13.780;2024-01-30T16:53:56;4.00;1.00
573;DHT22;271;51.114;13.780;2024-01-30T16:56:44;4.00;1.00
573;DHT22;271;51.114;13.780;2024-01-30T16:59:35;4.00;1.00
573;DHT22;271;51.114;13.780;2024-01-30T17:02:23;4.00;1.00
573;DHT22;271;51.114;13.780;2024-01-30T17:05:10;3.90;1.00
573;DHT22;271;51.114;13.780;2024-01-30T17:07:58;4.00;1.00
573;DHT22;271;51.114;13.780;2024-01-30T17:10:47;3.90;1.00
573;DHT22;271;51.114;13.780;2024-01-30T17:13:35;3.80;1.00
573;DHT22;271;51.114;13.780;2024-01-30T17:16:24;3.90;1.00
573;DHT22;271;51.114;13.780;2024-01-30T17:19:12;3.90;1.00
573;DHT22;271;51.114;13.780;2024-01-30T17:22:01;4.00;1.00
573;DHT22;271;51.114;13.780;2024-01-30T17:24:49;3.90;1.00
573;DHT22;271;51.114;13.780;2024-01-30T17:27:37;3.90;1.00
573;DHT22;271;51.114;13.780;2024-01-30T17:30:25;4.00;1.00
573;DHT22;271;51.114;13.780;2024-01-30T17:33:14;4.00;1.00
573;DHT22;271;51.114;13.780;2024-01-30T17:36:03;4.10;1.00
573;DHT22;271;51.114;13.780;2024-01-30T17:38:51;4.00;1.00
573;DHT22;271;51.114;13.780;2024-01-30T17:41:39;4.00;1.00
573;DHT22;271;51.114;13.780;2024-01-30T17:44:27;4.00;1.00
573;DHT22;271;51.114;13.780;2024-01-30T17:47:14;4.00;1.00
573;DHT22;271;51.114;13.780;2024-01-30T17:50:05;4.00;1.00
573;DHT22;271;51.114;13.780;2024-01-30T17:52:52;4.00;1.00
573;DHT22;271;51.114;13.780;2024-01-30T17:55:40;4.00;1.00
573;DHT22;271;51.114;13.780;2024-01-30T17:58:28;3.90;1.00
573;DHT22;271;51.114;13.780;2024-01-30T18:01:16;3.90;1.00
573;DHT22;271;51.114;13.780;2024-01-30T18:04:04;3.80;1.00
573;DHT22;271;51.114;13.780;2024-01-30T18:06:53;3.90;1.00
573;DHT22;271;51.114;13.780;2024-01-30T18:09:41;3.80;1.00
573;DHT22;271;51.114;13.780;2024-01-30T18:12:37;3.70;1.00
573;DHT22;271;51.114;13.780;2024-01-30T18:15:41;3.90;1.00
573;DHT22;271;51.114;13.780;2024-01-30T18:18:49;3.60;1.00
573;DHT22;271;51.114;13.780;2024-01-30T18:28:51;3.60;1.00
573;DHT22;271;51.114;13.780;2024-01-30T18:32:02;3.60;1.00
573;DHT22;271;51.114;13.780;2024-01-30T18:35:13;3.60;1.00
573;DHT22;271;51.114;13.780;2024-01-30T18:38:20;3.50;1.00
573;DHT22;271;51.114;13.780;2024-01-30T18:41:38;3.50;1.00
573;DHT22;271;51.114;13.780;2024-01-30T18:44:47;3.50;1.00
573;DHT22;271;51.114;13.780;2024-01-30T18:47:35;3.40;1.00
573;DHT22;271;51.114;13.780;2024-01-30T18:50:24;3.40;1.00
573;DHT22;271;51.114;13.780;2024-01-30T18:53:12;3.50;1.00
573;DHT22;271;51.114;13.780;2024-01-30T18:56:00;3.80;1.00
573;DHT22;271;51.114;13.780;2024-01-30T18:58:48;3.50;1.00
573;DHT22;271;51.114;13.780;2024-01-30T19:01:37;3.40;1.00
573;DHT22;271;51.114;13.780;2024-01-30T19:04:26;3.50;1.00
573;DHT22;271;51.114;13.780;2024-01-30T19:07:13;3.40;1.00
573;DHT22;271;51.114;13.780;2024-01-30T19:10:01;3.40;1.00
573;DHT22;271;51.114;13.780;2024-01-30T19:12:50;3.40;1.00
573;DHT22;271;51.114;13.780;2024-01-30T19:15:38;3.40;1.00
573;DHT22;271;51.114;13.780;2024-01-30T19:18:28;3.30;1.00
573;DHT22;271;51.114;13.780;2024-01-30T19:21:16;3.40;1.00
573;DHT22;271;51.114;13.780;2024-01-30T19:24:05;3.40;1.00
573;DHT22;271;51.114;13.780;2024-01-30T19:26:53;3.50;1.00